createdAt,value
2022-08-29T00:00:54.135Z,10.48
2022-08-29T00:03:58.035Z,7.13
2022-08-29T00:06:59.778Z,7.25
2022-08-29T00:10:01.616Z,8.55
2022-08-29T00:13:05.489Z,7.72
2022-08-29T00:16:08.587Z,8.23
2022-08-29T00:19:10.389Z,8.32
2022-08-29T00:22:12.062Z,8.85
2022-08-29T00:25:14.469Z,6.78
2022-08-29T00:28:16.372Z,7.70
2022-08-29T00:31:18.227Z,10.13
2022-08-29T00:34:19.997Z,6.35
2022-08-29T00:37:21.697Z,6.85
2022-08-29T00:40:31.485Z,8.60
2022-08-29T00:43:36.223Z,7.45
2022-08-29T00:46:50.859Z,8.15
2022-08-29T00:49:55.782Z,6.43
2022-08-29T00:52:59.292Z,6.25
2022-08-29T00:56:03.793Z,7.68
2022-08-29T00:59:26.015Z,7.63
2022-08-29T01:02:29.488Z,7.70
2022-08-29T01:05:32.003Z,7.43
2022-08-29T01:08:33.839Z,6.32
2022-08-29T01:11:54.743Z,8.88
2022-08-29T01:15:01.265Z,6.47
2022-08-29T01:18:06.283Z,7.70
2022-08-29T01:21:14.245Z,7.63
2022-08-29T01:24:15.929Z,8.18
2022-08-29T01:27:20.882Z,8.02
2022-08-29T01:30:22.809Z,5.60
2022-08-29T01:33:24.577Z,6.35
2022-08-29T01:36:33.287Z,8.38
2022-08-29T01:39:45.225Z,7.30
2022-08-29T01:42:49.356Z,5.22
2022-08-29T01:45:51.151Z,6.50
2022-08-29T01:48:53.432Z,7.82
2022-08-29T01:51:55.185Z,5.45
2022-08-29T01:54:56.875Z,8.18
2022-08-29T01:57:58.580Z,7.95
2022-08-29T02:01:00.324Z,5.80
2022-08-29T02:04:02.256Z,6.35
2022-08-29T02:07:04.028Z,6.05
2022-08-29T02:10:07.050Z,6.03
2022-08-29T02:13:08.748Z,7.88
2022-08-29T02:16:10.459Z,6.88
2022-08-29T02:19:12.221Z,8.18
2022-08-29T02:22:14.279Z,7.00
2022-08-29T02:25:34.577Z,7.55
2022-08-29T02:28:37.835Z,7.53
2022-08-29T02:31:40.935Z,7.05
2022-08-29T02:34:44.665Z,6.88
2022-08-29T02:37:49.482Z,7.90
2022-08-29T02:40:51.684Z,6.85
2022-08-29T02:43:53.485Z,7.13
2022-08-29T02:46:55.332Z,5.97
2022-08-29T02:49:57.143Z,9.48
2022-08-29T02:53:01.460Z,6.38
2022-08-29T02:56:03.509Z,7.13
2022-08-29T02:59:05.504Z,6.13
2022-08-29T03:02:07.625Z,6.50
2022-08-29T03:05:10.129Z,5.85
2022-08-29T03:08:16.272Z,7.28
2022-08-29T03:13:06.792Z,8.07
2022-08-29T03:15:19.975Z,5.53
2022-08-29T03:18:22.067Z,6.18
2022-08-29T03:22:22.082Z,7.47
2022-08-29T03:35:44.710Z,6.00
2022-08-29T03:49:29.121Z,5.47
2022-08-29T03:51:38.366Z,7.07
2022-08-29T03:55:35.699Z,6.93
2022-08-29T04:03:30.908Z,8.13
2022-08-29T04:06:40.267Z,7.53
2022-08-29T04:09:47.357Z,9.07
2022-08-29T04:12:54.258Z,8.60
2022-08-29T04:15:56.665Z,9.18
2022-08-29T04:18:58.950Z,8.25
2022-08-29T04:22:01.014Z,14.73
2022-08-29T04:25:04.781Z,7.75
2022-08-29T04:31:23.045Z,7.38
2022-08-29T04:34:26.042Z,11.85
2022-08-29T04:37:32.882Z,14.60
2022-08-29T04:40:38.217Z,10.20
2022-08-29T04:43:42.896Z,10.25
2022-08-29T04:46:44.690Z,7.90
2022-08-29T04:49:46.426Z,7.40
2022-08-29T04:52:48.904Z,8.85
2022-08-29T04:56:06.518Z,9.98
2022-08-29T04:59:23.055Z,9.73
2022-08-29T05:05:27.936Z,7.20
2022-08-29T05:08:30.092Z,7.93
2022-08-29T05:11:32.833Z,10.50
2022-08-29T05:14:35.095Z,7.10
2022-08-29T05:17:37.168Z,7.82
2022-08-29T05:20:43.839Z,7.28
2022-08-29T05:26:47.268Z,7.70
2022-08-29T05:29:51.445Z,8.10
2022-08-29T05:32:55.008Z,8.63
2022-08-29T05:35:57.565Z,8.05
2022-08-29T05:39:01.106Z,7.53
2022-08-29T05:42:03.329Z,9.82
2022-08-29T05:45:05.995Z,9.65
2022-08-29T05:48:09.591Z,11.43
2022-08-29T05:51:19.562Z,9.15
2022-08-29T05:54:21.606Z,8.95
2022-08-29T05:57:25.856Z,7.93
2022-08-29T06:00:27.771Z,10.07
2022-08-29T06:03:29.567Z,8.35
2022-08-29T06:06:31.424Z,9.45
2022-08-29T06:09:33.381Z,9.63
2022-08-29T06:12:36.016Z,9.63
2022-08-29T06:15:37.980Z,9.18
2022-08-29T06:18:40.739Z,8.80
2022-08-29T06:21:42.417Z,13.15
2022-08-29T06:24:45.334Z,8.20
2022-08-29T06:27:48.924Z,8.95
2022-08-29T06:30:50.684Z,11.57
2022-08-29T06:33:54.696Z,10.90
2022-08-29T06:36:56.634Z,7.40
2022-08-29T06:39:58.387Z,8.07
2022-08-29T06:43:00.111Z,8.32
2022-08-29T06:46:01.988Z,8.90
2022-08-29T06:49:05.516Z,12.23
2022-08-29T06:52:07.215Z,9.25
2022-08-29T06:55:12.912Z,10.07
2022-08-29T06:58:18.807Z,9.65
2022-08-29T07:01:21.761Z,11.20
2022-08-29T07:04:26.611Z,9.57
2022-08-29T07:07:28.642Z,11.63
2022-08-29T07:10:35.654Z,6.03
2022-08-29T07:13:37.399Z,7.80
2022-08-29T07:16:41.107Z,9.48
2022-08-29T07:19:42.970Z,9.27
2022-08-29T07:22:47.522Z,11.40
2022-08-29T07:25:49.249Z,9.35
2022-08-29T07:28:54.013Z,9.07
2022-08-29T07:31:55.898Z,9.73
2022-08-29T07:34:57.915Z,11.00
2022-08-29T07:38:01.443Z,9.65
2022-08-29T07:41:08.850Z,12.50
2022-08-29T07:44:11.667Z,13.25
2022-08-29T07:47:13.375Z,14.45
2022-08-29T07:50:15.114Z,11.60
2022-08-29T07:53:17.636Z,12.27
2022-08-29T07:56:25.203Z,11.40
2022-08-29T07:59:27.110Z,12.60
2022-08-29T08:02:29.029Z,10.45
2022-08-29T08:05:33.761Z,8.80
2022-08-29T08:08:35.626Z,10.95
2022-08-29T08:11:43.683Z,10.68
2022-08-29T08:14:57.032Z,11.07
2022-08-29T08:17:58.772Z,11.18
2022-08-29T08:21:00.419Z,10.57
2022-08-29T08:24:02.587Z,12.73
2022-08-29T08:27:04.796Z,11.52
2022-08-29T08:30:07.197Z,10.23
2022-08-29T08:33:09.957Z,10.48
2022-08-29T08:36:30.949Z,10.05
2022-08-29T08:39:32.649Z,10.15
2022-08-29T08:42:42.583Z,10.05
2022-08-29T08:45:46.413Z,10.75
2022-08-29T08:48:49.749Z,14.40
2022-08-29T08:51:59.862Z,8.88
2022-08-29T08:55:07.412Z,10.30
2022-08-29T08:58:29.342Z,12.15
2022-08-29T09:01:43.404Z,12.25
2022-08-29T09:05:20.477Z,11.93
2022-08-29T09:08:58.678Z,9.43
2022-08-29T09:12:06.835Z,11.88
2022-08-29T09:15:20.257Z,11.00
2022-08-29T09:18:32.349Z,8.95
2022-08-29T09:21:48.643Z,10.30
2022-08-29T09:25:04.038Z,9.57
2022-08-29T09:28:07.932Z,12.57
2022-08-29T09:31:28.511Z,11.38
2022-08-29T09:34:57.416Z,11.25
2022-08-29T09:38:25.789Z,10.68
2022-08-29T09:41:31.164Z,9.00
2022-08-29T09:44:35.435Z,10.85
2022-08-29T09:47:37.329Z,9.27
2022-08-29T09:50:39.679Z,11.75
2022-08-29T09:53:42.844Z,13.07
2022-08-29T09:56:59.668Z,9.88
2022-08-29T10:03:22.879Z,11.05
2022-08-29T10:06:32.591Z,9.90
2022-08-29T10:09:34.901Z,9.05
2022-08-29T10:13:15.206Z,14.85
2022-08-29T10:16:27.237Z,8.00
2022-08-29T10:19:34.289Z,10.90
2022-08-29T10:22:44.162Z,9.13
2022-08-29T10:25:46.329Z,9.68
2022-08-29T10:29:16.123Z,8.38
2022-08-29T10:32:49.264Z,7.75
2022-08-29T10:36:09.693Z,7.50
2022-08-29T10:39:17.921Z,8.82
2022-08-29T10:42:25.488Z,10.40
2022-08-29T10:46:00.218Z,8.00
2022-08-29T10:49:23.052Z,7.40
2022-08-29T10:53:06.298Z,7.07
2022-08-29T10:56:18.957Z,8.35
2022-08-29T10:59:58.267Z,8.70
2022-08-29T11:03:36.204Z,6.82
2022-08-29T11:06:43.925Z,8.57
2022-08-29T11:09:52.122Z,7.85
2022-08-29T11:13:01.411Z,8.07
2022-08-29T11:16:08.659Z,8.57
2022-08-29T11:19:27.408Z,6.47
2022-08-29T11:22:37.979Z,7.25
2022-08-29T11:25:42.017Z,8.93
2022-08-29T11:29:10.154Z,6.60
2022-08-29T11:32:38.874Z,5.85
2022-08-29T11:35:49.592Z,6.72
2022-08-29T11:39:20.157Z,6.43
2022-08-29T11:46:01.630Z,5.95
2022-08-29T11:49:32.084Z,6.28
2022-08-29T11:52:35.274Z,7.70
2022-08-29T11:55:43.243Z,6.65
2022-08-29T11:58:50.233Z,7.00
2022-08-29T12:02:01.074Z,8.30
2022-08-29T12:05:02.751Z,9.30
2022-08-29T12:08:36.440Z,8.90
2022-08-29T12:12:02.759Z,7.70
2022-08-29T12:15:26.415Z,7.03
2022-08-29T12:18:36.646Z,7.10
2022-08-29T12:21:39.254Z,7.30
2022-08-29T12:24:43.141Z,6.40
2022-08-29T12:28:07.084Z,5.90
2022-08-29T12:32:08.614Z,6.40
2022-08-29T12:35:31.339Z,6.78
2022-08-29T12:42:41.695Z,7.25
2022-08-29T12:45:50.644Z,7.28
2022-08-29T12:49:24.156Z,6.82
2022-08-29T12:52:30.502Z,6.00
2022-08-29T12:55:42.135Z,6.47
2022-08-29T12:58:47.152Z,7.35
2022-08-29T13:01:56.105Z,8.30
2022-08-29T13:04:59.545Z,13.15
2022-08-29T13:08:11.078Z,8.85
2022-08-29T13:11:21.450Z,6.72
2022-08-29T13:14:23.791Z,7.63
2022-08-29T13:17:37.276Z,7.18
2022-08-29T13:20:40.235Z,7.63
2022-08-29T13:23:45.965Z,8.05
2022-08-29T13:27:05.575Z,8.00
2022-08-29T13:30:08.469Z,6.97
2022-08-29T13:33:35.162Z,8.50
2022-08-29T13:37:10.608Z,6.30
2022-08-29T13:40:44.935Z,6.82
2022-08-29T13:43:48.996Z,5.80
2022-08-29T13:46:52.639Z,6.40
2022-08-29T13:49:59.887Z,7.35
2022-08-29T13:53:01.567Z,9.00
2022-08-29T13:56:04.094Z,7.47
2022-08-29T13:59:06.744Z,6.25
2022-08-29T14:02:10.043Z,7.85
2022-08-29T14:05:13.711Z,5.55
2022-08-29T14:08:15.956Z,7.88
2022-08-29T14:11:18.061Z,5.90
2022-08-29T14:14:19.995Z,6.55
2022-08-29T14:17:23.660Z,6.72
2022-08-29T14:20:25.722Z,6.40
2022-08-29T14:23:27.807Z,6.30
2022-08-29T14:26:29.464Z,4.13
2022-08-29T14:29:32.325Z,5.10
2022-08-29T14:32:34.111Z,10.43
2022-08-29T14:35:36.248Z,6.93
2022-08-29T14:38:44.091Z,6.20
2022-08-29T14:41:46.190Z,7.10
2022-08-29T14:44:48.053Z,5.82
2022-08-29T14:47:49.728Z,6.60
2022-08-29T14:50:51.408Z,6.30
2022-08-29T14:53:54.476Z,6.85
2022-08-29T14:56:56.498Z,6.97
2022-08-29T14:59:58.187Z,4.88
2022-08-29T15:03:00.323Z,7.32
2022-08-29T15:06:05.264Z,5.32
2022-08-29T15:09:07.060Z,5.82
2022-08-29T15:12:08.893Z,7.32
2022-08-29T15:15:11.469Z,7.75
2022-08-29T15:18:30.528Z,6.10
2022-08-29T15:21:36.081Z,8.77
2022-08-29T15:24:39.642Z,7.97
2022-08-29T15:27:41.910Z,5.05
2022-08-29T15:30:43.629Z,6.55
2022-08-29T15:33:45.329Z,7.03
2022-08-29T15:36:46.983Z,4.80
2022-08-29T15:39:50.608Z,5.75
2022-08-29T15:42:56.338Z,5.97
2022-08-29T15:45:59.810Z,5.55
2022-08-29T15:49:01.917Z,4.65
2022-08-29T15:52:03.770Z,7.30
2022-08-29T15:55:06.384Z,4.50
2022-08-29T15:58:08.090Z,4.65
2022-08-29T16:01:10.861Z,5.63
2022-08-29T16:04:15.076Z,3.33
2022-08-29T16:07:18.049Z,3.95
2022-08-29T16:10:19.854Z,3.10
2022-08-29T16:13:21.654Z,3.20
2022-08-29T16:16:24.409Z,3.22
2022-08-29T16:19:26.169Z,3.85
2022-08-29T16:22:28.503Z,3.40
2022-08-29T16:25:31.904Z,2.95
2022-08-29T16:28:33.807Z,3.50
2022-08-29T16:31:36.128Z,3.75
2022-08-29T16:34:38.401Z,2.97
2022-08-29T16:37:40.525Z,3.20
2022-08-29T16:40:42.250Z,4.75
2022-08-29T16:43:49.731Z,4.10
2022-08-29T16:46:51.907Z,3.85
2022-08-29T16:49:53.736Z,3.90
2022-08-29T16:52:55.983Z,4.88
2022-08-29T16:55:58.054Z,5.30
2022-08-29T16:59:00.219Z,4.00
2022-08-29T17:02:02.500Z,4.10
2022-08-29T17:05:04.786Z,4.22
2022-08-29T17:08:06.425Z,4.30
2022-08-29T17:11:08.172Z,3.70
2022-08-29T17:14:10.679Z,3.78
2022-08-29T17:17:12.313Z,3.05
2022-08-29T17:20:15.036Z,5.70
2022-08-29T17:23:16.670Z,3.47
2022-08-29T17:26:19.059Z,4.30
2022-08-29T17:29:20.706Z,3.13
2022-08-29T17:32:22.977Z,4.32
2022-08-29T17:35:24.687Z,2.95
2022-08-29T17:38:26.629Z,3.17
2022-08-29T17:41:28.272Z,2.72
2022-08-29T17:44:34.965Z,3.50
2022-08-29T17:47:37.042Z,3.43
2022-08-29T17:50:39.141Z,3.72
2022-08-29T17:53:40.935Z,4.07
2022-08-29T17:57:01.318Z,7.18
2022-08-29T18:00:05.588Z,3.88
2022-08-29T18:03:12.315Z,3.90
2022-08-29T18:06:15.228Z,3.42
2022-08-29T18:09:17.215Z,3.97
2022-08-29T18:12:20.339Z,3.45
2022-08-29T18:15:22.320Z,3.15
2022-08-29T18:18:25.386Z,2.83
2022-08-29T18:21:29.492Z,3.15
2022-08-29T18:24:31.213Z,3.90
2022-08-29T18:27:33.797Z,4.20
2022-08-29T18:30:35.682Z,3.65
2022-08-29T18:33:59.102Z,4.55
2022-08-29T18:36:59.079Z,3.53
2022-08-29T18:40:00.757Z,3.95
2022-08-29T18:43:02.578Z,3.88
2022-08-29T18:46:04.597Z,4.95
2022-08-29T18:49:06.741Z,4.13
2022-08-29T18:52:09.496Z,2.67
2022-08-29T18:55:15.721Z,2.80
2022-08-29T18:58:19.142Z,3.25
2022-08-29T19:01:27.622Z,4.55
2022-08-29T19:04:29.807Z,4.55
2022-08-29T19:07:31.532Z,3.75
2022-08-29T19:10:33.353Z,5.15
2022-08-29T19:13:35.406Z,4.63
2022-08-29T19:16:37.381Z,3.20
2022-08-29T19:19:57.688Z,3.40
2022-08-29T19:22:59.580Z,3.20
2022-08-29T19:26:03.440Z,3.63
2022-08-29T19:29:14.059Z,4.18
2022-08-29T19:32:15.767Z,4.05
2022-08-29T19:35:18.274Z,3.80
2022-08-29T19:38:22.981Z,8.15
2022-08-29T19:41:25.233Z,7.40
2022-08-29T19:44:27.013Z,2.97
2022-08-29T19:47:29.280Z,4.63
2022-08-29T19:50:31.058Z,4.03
2022-08-29T19:53:32.761Z,3.25
2022-08-29T19:56:37.212Z,3.20
2022-08-29T19:59:39.527Z,3.30
2022-08-29T20:02:45.821Z,3.30
2022-08-29T20:05:48.717Z,5.13
2022-08-29T20:08:50.656Z,4.55
2022-08-29T20:11:53.532Z,4.13
2022-08-29T20:14:56.463Z,3.75
2022-08-29T20:17:59.949Z,3.83
2022-08-29T20:21:01.696Z,3.05
2022-08-29T20:24:04.539Z,2.53
2022-08-29T20:27:07.535Z,3.30
2022-08-29T20:30:13.620Z,4.55
2022-08-29T20:33:15.691Z,3.17
2022-08-29T20:36:38.985Z,4.78
2022-08-29T20:39:46.765Z,3.15
2022-08-29T20:42:48.469Z,3.42
2022-08-29T20:45:50.642Z,3.80
2022-08-29T20:48:52.379Z,3.22
2022-08-29T20:51:54.088Z,3.75
2022-08-29T20:54:55.807Z,3.30
2022-08-29T20:57:57.555Z,3.08
2022-08-29T21:01:00.585Z,3.20
2022-08-29T21:04:23.384Z,3.17
2022-08-29T21:07:26.101Z,4.03
2022-08-29T21:10:28.847Z,3.30
2022-08-29T21:13:30.905Z,3.85
2022-08-29T21:16:32.643Z,3.80
2022-08-29T21:19:34.647Z,3.13
2022-08-29T21:22:36.262Z,2.90
2022-08-29T21:25:40.192Z,2.78
2022-08-29T21:28:44.372Z,3.25
2022-08-29T21:31:50.981Z,2.65
2022-08-29T21:34:52.699Z,3.72
2022-08-29T21:37:54.355Z,2.30
2022-08-29T21:40:58.717Z,3.55
2022-08-29T21:44:00.357Z,3.75
2022-08-29T21:47:02.912Z,3.95
2022-08-29T21:50:05.946Z,2.38
2022-08-29T21:53:07.680Z,3.78
2022-08-29T21:56:09.412Z,3.03
2022-08-29T21:59:12.404Z,3.10
2022-08-29T22:02:15.135Z,3.15
2022-08-29T22:05:17.161Z,2.95
2022-08-29T22:08:20.978Z,2.10
2022-08-29T22:11:38.013Z,2.72
2022-08-29T22:14:58.371Z,2.60
2022-08-29T22:18:00.136Z,2.53
2022-08-29T22:21:02.422Z,2.88
2022-08-29T22:24:04.842Z,4.47
2022-08-29T22:27:07.511Z,2.45
2022-08-29T22:30:09.957Z,2.95
2022-08-29T22:33:16.524Z,2.30
2022-08-29T22:36:19.679Z,4.10
2022-08-29T22:39:21.575Z,3.25
2022-08-29T22:42:23.772Z,2.80
2022-08-29T22:45:26.105Z,3.53
2022-08-29T22:48:27.881Z,2.85
2022-08-29T22:51:29.690Z,2.72
2022-08-29T22:54:37.191Z,2.63
2022-08-29T22:57:39.687Z,2.15
2022-08-29T23:00:41.464Z,3.65
2022-08-29T23:03:43.118Z,2.20
2022-08-29T23:06:44.912Z,2.33
2022-08-29T23:09:46.815Z,2.35
2022-08-29T23:12:50.569Z,2.30
2022-08-29T23:15:52.444Z,2.90
2022-08-29T23:18:54.241Z,2.38
2022-08-29T23:21:55.909Z,1.63
2022-08-29T23:24:59.122Z,2.80
2022-08-29T23:28:01.163Z,2.28
2022-08-29T23:31:03.652Z,2.08
2022-08-29T23:34:05.491Z,1.88
2022-08-29T23:37:07.543Z,1.65
2022-08-29T23:40:09.769Z,2.28
2022-08-29T23:43:11.788Z,2.33
2022-08-29T23:46:13.981Z,1.85
2022-08-29T23:49:15.764Z,3.05
2022-08-29T23:52:18.022Z,2.30
2022-08-29T23:55:19.756Z,3.67
2022-08-29T23:58:21.527Z,2.70
